Terminal Aerodrome Forecast
Issued by NWS Cleveland, OH

Home | Current Version | Previous Version | Graphics & Text | Print | Product List | Glossary On
Versions: 1 2 3 4 5 6 7 8 9 10 11 12 13 14 15 16 17 18 19 20 21 22 23 24 25
000
FTUS41 KCLE 021700
TAFYNG
TAF
KYNG 021734Z 0218/0318 29011KT P6SM BKN035
     FM022000 28007KT P6SM SCT035 BKN250
     FM030000 VRB03KT P6SM BKN200
     FM031200 VRB05KT P6SM BKN040 OVC120
     FM031700 15012KT 4SM -FZRASNPL BR SCT015 OVC040=

USA.gov is the U.S. government's official web portal to all federal, state and local government web resources and services.